createdAt,value
2023-02-24T00:01:22.281Z,5.83
2023-02-24T00:03:49.851Z,5.47
2023-02-24T00:06:17.412Z,5.43
2023-02-24T00:08:44.920Z,4.93
2023-02-24T00:11:14.026Z,5.83
2023-02-24T00:13:42.292Z,4.60
2023-02-24T00:16:09.895Z,5.53
2023-02-24T00:18:37.451Z,5.17
2023-02-24T00:21:05.908Z,5.33
2023-02-24T00:23:33.413Z,5.07
2023-02-24T00:26:01.028Z,3.30
2023-02-24T00:28:29.027Z,5.23
2023-02-24T00:30:56.737Z,4.07
2023-02-24T00:33:24.311Z,3.97
2023-02-24T00:35:51.939Z,4.53
2023-02-24T00:38:19.500Z,4.40
2023-02-24T00:40:47.124Z,3.87
2023-02-24T00:43:14.652Z,4.50
2023-02-24T00:45:42.249Z,4.37
2023-02-24T00:48:09.785Z,4.80
2023-02-24T00:50:37.720Z,3.63
2023-02-24T00:53:05.809Z,3.93
2023-02-24T00:55:33.423Z,4.30
2023-02-24T00:58:00.916Z,3.90
2023-02-24T01:00:28.549Z,4.57
2023-02-24T01:02:56.299Z,4.30
2023-02-24T01:05:23.862Z,4.50
2023-02-24T01:07:51.379Z,3.77
2023-02-24T01:10:18.957Z,3.77
2023-02-24T01:12:46.458Z,4.70
2023-02-24T01:15:14.001Z,4.60
2023-02-24T01:17:41.485Z,3.60
2023-02-24T01:20:09.727Z,4.23
2023-02-24T01:22:37.267Z,3.90
2023-02-24T01:25:04.981Z,3.90
2023-02-24T01:27:32.506Z,4.13
2023-02-24T01:30:00.101Z,4.03
2023-02-24T01:32:27.791Z,4.23
2023-02-24T01:34:55.448Z,4.03
2023-02-24T01:37:23.048Z,3.70
2023-02-24T01:39:50.935Z,3.67
2023-02-24T01:42:20.532Z,4.13
2023-02-24T01:44:49.925Z,3.53
2023-02-24T01:47:18.675Z,4.27
2023-02-24T01:49:47.954Z,5.87
2023-02-24T01:52:18.176Z,4.77
2023-02-24T01:54:51.621Z,5.67
2023-02-24T01:57:20.262Z,4.57
2023-02-24T01:59:48.718Z,4.77
2023-02-24T02:02:16.997Z,4.90
2023-02-24T02:04:50.103Z,5.10
2023-02-24T02:07:19.256Z,4.10
2023-02-24T02:09:47.985Z,4.40
2023-02-24T02:12:15.599Z,4.63
2023-02-24T02:14:45.253Z,4.10
2023-02-24T02:17:16.996Z,3.97
2023-02-24T02:19:50.562Z,4.73
2023-02-24T02:22:36.764Z,3.63
2023-02-24T02:25:18.582Z,3.67
2023-02-24T02:27:46.158Z,4.40
2023-02-24T02:30:25.680Z,4.23
2023-02-24T02:32:53.343Z,2.90
2023-02-24T02:35:29.750Z,4.17
2023-02-24T02:38:06.033Z,3.50
2023-02-24T02:40:42.105Z,5.50
2023-02-24T02:43:21.646Z,3.60
2023-02-24T02:45:58.605Z,3.73
2023-02-24T02:48:26.148Z,3.43
2023-02-24T02:50:55.952Z,3.30
2023-02-24T02:53:27.499Z,4.03
2023-02-24T02:56:01.034Z,4.60
2023-02-24T02:58:31.516Z,4.47
2023-02-24T03:01:00.932Z,4.70
2023-02-24T03:03:39.858Z,4.73
2023-02-24T03:06:10.587Z,4.27
2023-02-24T03:08:40.230Z,4.87
2023-02-24T03:11:12.932Z,4.30
2023-02-24T03:13:42.423Z,4.47
2023-02-24T03:16:11.541Z,5.03
2023-02-24T03:18:41.138Z,5.17
2023-02-24T03:21:10.237Z,3.77
2023-02-24T03:23:44.467Z,3.83
2023-02-24T03:26:30.557Z,4.20
2023-02-24T03:29:03.026Z,4.87
2023-02-24T03:31:36.108Z,4.37
2023-02-24T03:34:11.177Z,4.50
2023-02-24T03:36:38.892Z,4.00
2023-02-24T03:39:06.877Z,4.67
2023-02-24T03:41:40.221Z,4.20
2023-02-24T03:44:09.370Z,4.47
2023-02-24T03:46:36.875Z,3.70
2023-02-24T03:49:09.020Z,4.83
2023-02-24T03:51:36.629Z,4.67
2023-02-24T03:54:20.084Z,4.43
2023-02-24T03:56:57.587Z,5.00
2023-02-24T03:59:37.001Z,4.80
2023-02-24T04:02:27.615Z,5.13
2023-02-24T04:04:58.161Z,4.00
2023-02-24T04:07:44.730Z,4.07
2023-02-24T04:10:17.489Z,4.70
2023-02-24T04:13:00.484Z,3.37
2023-02-24T04:15:31.064Z,4.87
2023-02-24T04:18:06.701Z,4.30
2023-02-24T04:20:34.940Z,4.60
2023-02-24T04:23:07.141Z,3.67
2023-02-24T04:25:34.931Z,4.30
2023-02-24T04:28:02.860Z,4.23
2023-02-24T04:30:34.072Z,4.33
2023-02-24T04:33:01.854Z,4.73
2023-02-24T04:35:29.408Z,4.30
2023-02-24T04:37:57.126Z,4.63
2023-02-24T04:40:24.663Z,4.03
2023-02-24T04:42:52.754Z,4.23
2023-02-24T04:45:27.521Z,5.57
2023-02-24T04:47:55.970Z,5.03
2023-02-24T04:50:25.021Z,4.13
2023-02-24T04:52:53.916Z,4.93
2023-02-24T04:55:21.984Z,5.10
2023-02-24T04:57:59.105Z,5.57
2023-02-24T05:00:27.812Z,5.93
2023-02-24T05:02:56.243Z,4.67
2023-02-24T05:05:25.348Z,4.53
2023-02-24T05:07:53.782Z,4.90
2023-02-24T05:10:21.483Z,4.90
2023-02-24T05:12:49.172Z,4.93
2023-02-24T05:15:16.723Z,5.73
2023-02-24T05:17:44.318Z,4.30
2023-02-24T05:20:12.120Z,4.87
2023-02-24T05:22:39.683Z,4.47
2023-02-24T05:25:08.740Z,5.27
2023-02-24T05:27:36.293Z,4.63
2023-02-24T05:30:03.887Z,4.70
2023-02-24T05:32:31.593Z,4.60
2023-02-24T05:34:59.144Z,4.33
2023-02-24T05:37:26.947Z,4.60
2023-02-24T05:39:58.161Z,4.83
2023-02-24T05:42:25.693Z,6.13
2023-02-24T05:44:53.181Z,3.97
2023-02-24T05:47:20.761Z,4.33
2023-02-24T05:49:48.266Z,4.60
2023-02-24T05:52:15.830Z,4.57
2023-02-24T05:54:43.743Z,5.00
2023-02-24T05:57:13.278Z,5.27
2023-02-24T05:59:41.478Z,5.83
2023-02-24T06:02:11.015Z,3.80
2023-02-24T06:04:39.840Z,5.33
2023-02-24T06:07:11.903Z,3.83
2023-02-24T06:09:39.420Z,4.67
2023-02-24T06:12:07.005Z,4.03
2023-02-24T06:14:34.644Z,4.20
2023-02-24T06:17:02.240Z,4.70
2023-02-24T06:19:30.005Z,4.00
2023-02-24T06:21:57.514Z,4.70
2023-02-24T06:24:25.117Z,5.00
2023-02-24T06:26:52.618Z,4.40
2023-02-24T06:29:20.214Z,4.33
2023-02-24T06:31:47.848Z,4.27
2023-02-24T06:34:15.495Z,4.30
2023-02-24T06:36:43.008Z,3.63
2023-02-24T06:39:10.653Z,5.07
2023-02-24T06:41:38.232Z,4.40
2023-02-24T06:44:05.885Z,5.27
2023-02-24T06:46:33.419Z,3.73
2023-02-24T06:49:01.014Z,3.93
2023-02-24T06:51:28.603Z,4.00
2023-02-24T06:53:59.464Z,4.40
2023-02-24T06:56:27.977Z,5.47
2023-02-24T06:58:56.081Z,3.70
2023-02-24T07:01:25.549Z,4.60
2023-02-24T07:03:54.650Z,3.63
2023-02-24T07:06:22.175Z,4.50
2023-02-24T07:08:50.121Z,3.87
2023-02-24T07:11:17.618Z,3.97
2023-02-24T07:13:46.082Z,3.60
2023-02-24T07:16:14.665Z,4.47
2023-02-24T07:18:43.737Z,3.30
2023-02-24T07:21:11.820Z,3.63
2023-02-24T07:23:40.442Z,3.87
2023-02-24T07:26:11.965Z,4.13
2023-02-24T07:28:40.306Z,4.67
2023-02-24T07:31:12.169Z,5.20
2023-02-24T07:33:40.591Z,3.77
2023-02-24T07:36:08.807Z,4.00
2023-02-24T07:38:37.441Z,4.60
2023-02-24T07:41:06.368Z,5.27
2023-02-24T07:43:34.514Z,4.67
2023-02-24T07:46:08.137Z,3.70
2023-02-24T07:48:36.002Z,4.30
2023-02-24T07:51:14.108Z,4.50
2023-02-24T07:53:42.336Z,4.40
2023-02-24T07:56:10.966Z,3.90
2023-02-24T07:58:38.539Z,4.27
2023-02-24T08:01:06.120Z,3.53
2023-02-24T08:03:33.686Z,4.73
2023-02-24T08:06:01.175Z,4.53
2023-02-24T08:08:28.776Z,4.30
2023-02-24T08:10:56.331Z,3.83
2023-02-24T08:13:23.882Z,4.67
2023-02-24T08:15:51.418Z,4.40
2023-02-24T08:18:18.969Z,4.03
2023-02-24T08:20:46.490Z,4.20
2023-02-24T08:23:14.227Z,5.40
2023-02-24T08:25:41.791Z,4.57
2023-02-24T08:28:09.936Z,4.57
2023-02-24T08:30:44.471Z,4.87
2023-02-24T08:33:13.557Z,4.20
2023-02-24T08:35:41.085Z,4.27
2023-02-24T08:38:11.437Z,4.03
2023-02-24T08:40:40.083Z,3.87
2023-02-24T08:43:09.798Z,4.07
2023-02-24T08:45:37.376Z,3.70
2023-02-24T08:48:04.913Z,4.57
2023-02-24T08:50:32.516Z,3.80
2023-02-24T08:53:00.342Z,4.53
2023-02-24T08:55:28.046Z,4.20
2023-02-24T08:57:55.632Z,3.43
2023-02-24T09:00:26.543Z,3.07
2023-02-24T09:02:54.145Z,3.40
2023-02-24T09:05:21.754Z,3.90
2023-02-24T09:07:49.328Z,3.63
2023-02-24T09:10:20.158Z,3.10
2023-02-24T09:12:48.030Z,3.03
2023-02-24T09:15:16.336Z,3.17
2023-02-24T09:17:44.919Z,3.13
2023-02-24T09:20:22.212Z,3.70
2023-02-24T09:22:49.831Z,3.10
2023-02-24T09:25:17.358Z,3.57
2023-02-24T09:27:48.826Z,3.60
2023-02-24T09:30:16.453Z,3.70
2023-02-24T09:32:44.130Z,2.60
2023-02-24T09:35:11.816Z,3.20
2023-02-24T09:37:39.371Z,3.73
2023-02-24T09:40:09.662Z,3.37
2023-02-24T09:42:37.347Z,3.10
2023-02-24T09:45:11.827Z,3.50
2023-02-24T09:47:44.226Z,3.00
2023-02-24T09:50:44.297Z,2.83
2023-02-24T09:53:11.771Z,3.07
2023-02-24T09:55:42.012Z,3.00
2023-02-24T09:58:09.583Z,2.90
2023-02-24T10:00:38.842Z,3.00
2023-02-24T10:03:19.991Z,3.23
2023-02-24T10:05:54.384Z,3.80
2023-02-24T10:08:26.566Z,2.73
2023-02-24T10:10:54.717Z,3.03
2023-02-24T10:13:24.021Z,3.50
2023-02-24T10:15:56.945Z,3.33
2023-02-24T10:18:30.889Z,3.20
2023-02-24T10:21:04.001Z,5.13
2023-02-24T10:23:43.105Z,4.47
2023-02-24T10:26:41.677Z,3.67
2023-02-24T10:29:12.972Z,3.40
2023-02-24T10:31:45.568Z,3.73
2023-02-24T10:34:15.409Z,3.57
2023-02-24T10:36:42.926Z,3.17
2023-02-24T10:39:15.452Z,3.60
2023-02-24T10:41:46.846Z,3.20
2023-02-24T10:44:21.277Z,3.03
2023-02-24T10:46:59.604Z,3.83
2023-02-24T10:49:27.294Z,4.20
2023-02-24T10:51:54.749Z,3.53
2023-02-24T10:54:22.301Z,3.00
2023-02-24T10:56:51.402Z,3.40
2023-02-24T10:59:19.746Z,3.10
2023-02-24T11:01:51.962Z,2.80
2023-02-24T11:04:19.641Z,3.00
2023-02-24T11:06:47.177Z,3.57
2023-02-24T11:09:14.725Z,3.33
2023-02-24T11:11:42.254Z,4.13
2023-02-24T11:14:16.440Z,4.07
2023-02-24T11:16:52.674Z,4.33
2023-02-24T11:19:20.968Z,3.03
2023-02-24T11:21:48.523Z,3.77
2023-02-24T11:24:19.780Z,4.13
2023-02-24T11:26:47.382Z,4.80
2023-02-24T11:29:14.880Z,3.40
2023-02-24T11:31:45.674Z,3.17
2023-02-24T11:34:23.074Z,3.67
2023-02-24T11:36:56.802Z,4.80
2023-02-24T11:39:24.327Z,4.10
2023-02-24T11:41:53.846Z,3.37
2023-02-24T11:44:27.548Z,3.40
2023-02-24T11:47:00.297Z,3.23
2023-02-24T11:49:40.759Z,3.40
2023-02-24T11:52:13.170Z,4.03
2023-02-24T11:54:45.331Z,3.90
2023-02-24T11:57:22.825Z,3.43
2023-02-24T11:59:55.215Z,3.83
2023-02-24T12:02:41.506Z,3.50
2023-02-24T12:05:09.127Z,3.13
2023-02-24T12:07:57.019Z,5.17
2023-02-24T12:10:28.063Z,3.83
2023-02-24T12:13:01.406Z,4.23
2023-02-24T12:15:38.376Z,3.63
2023-02-24T12:18:32.488Z,3.97
2023-02-24T12:21:05.897Z,4.30
2023-02-24T12:23:37.894Z,4.60
2023-02-24T12:26:24.113Z,4.63
2023-02-24T12:29:10.047Z,5.30
2023-02-24T12:31:53.077Z,4.43
2023-02-24T12:34:36.147Z,4.03
2023-02-24T12:37:06.547Z,4.10
2023-02-24T12:39:46.303Z,5.00
2023-02-24T12:42:13.896Z,4.80
2023-02-24T12:44:44.387Z,4.63
2023-02-24T12:47:17.251Z,4.43
2023-02-24T12:49:50.879Z,4.07
2023-02-24T12:52:24.665Z,4.60
2023-02-24T12:54:52.214Z,5.03
2023-02-24T12:57:27.310Z,4.57
2023-02-24T12:59:58.000Z,4.17
2023-02-24T13:02:28.471Z,4.80
2023-02-24T13:05:05.296Z,4.97
2023-02-24T13:07:32.851Z,4.10
2023-02-24T13:10:12.612Z,3.47
2023-02-24T13:12:44.414Z,4.60
2023-02-24T13:15:25.763Z,4.53
2023-02-24T13:17:58.042Z,3.73
2023-02-24T13:20:39.111Z,4.47
2023-02-24T13:23:22.838Z,3.93
2023-02-24T13:25:54.425Z,4.10
2023-02-24T13:28:21.998Z,4.40
2023-02-24T13:30:57.956Z,4.70
2023-02-24T13:33:29.083Z,3.63
2023-02-24T13:36:15.340Z,4.20
2023-02-24T13:38:46.449Z,5.00
2023-02-24T13:41:16.759Z,4.40
2023-02-24T13:43:53.733Z,4.67
2023-02-24T13:46:21.513Z,5.13
2023-02-24T13:48:53.905Z,4.60
2023-02-24T13:51:40.763Z,4.57
2023-02-24T13:54:19.680Z,4.60
2023-02-24T13:56:56.067Z,4.17
2023-02-24T13:59:42.060Z,4.43
2023-02-24T14:02:12.529Z,4.90
2023-02-24T14:04:46.124Z,4.57
2023-02-24T14:07:17.996Z,4.90
2023-02-24T14:09:47.018Z,5.30
2023-02-24T14:12:16.635Z,5.60
2023-02-24T14:14:45.160Z,5.10
2023-02-24T14:17:22.680Z,5.10
2023-02-24T14:19:50.356Z,5.83
2023-02-24T14:22:19.517Z,6.07
2023-02-24T14:24:47.241Z,5.70
2023-02-24T14:27:22.770Z,5.77
2023-02-24T14:29:52.085Z,6.57
2023-02-24T14:32:24.856Z,6.20
2023-02-24T14:34:53.222Z,5.73
2023-02-24T14:37:31.341Z,6.67
2023-02-24T14:40:00.050Z,7.30
2023-02-24T14:42:28.312Z,6.80
2023-02-24T14:44:57.784Z,6.93
2023-02-24T14:47:26.764Z,6.87
2023-02-24T14:49:57.163Z,8.00
2023-02-24T14:52:41.591Z,8.60
2023-02-24T14:55:20.796Z,8.63
2023-02-24T14:57:55.127Z,9.60
2023-02-24T15:00:25.580Z,9.60
2023-02-24T15:02:59.274Z,9.43
2023-02-24T15:05:26.923Z,9.03
2023-02-24T15:07:54.493Z,9.50
2023-02-24T15:10:23.943Z,9.83
2023-02-24T15:12:54.668Z,10.23
2023-02-24T15:15:24.341Z,10.33
2023-02-24T15:17:56.420Z,9.87
2023-02-24T15:20:37.764Z,9.73
2023-02-24T15:23:05.863Z,10.63
2023-02-24T15:25:43.745Z,10.37
2023-02-24T15:28:26.476Z,10.97
2023-02-24T15:30:57.187Z,10.90
2023-02-24T15:33:26.031Z,11.03
2023-02-24T15:35:58.308Z,11.90
2023-02-24T15:38:37.062Z,12.53
2023-02-24T15:41:05.932Z,13.07
2023-02-24T15:43:37.862Z,13.43
2023-02-24T15:46:24.562Z,13.70
2023-02-24T15:48:53.713Z,12.13
2023-02-24T15:51:24.331Z,12.03
2023-02-24T15:53:51.960Z,12.73
2023-02-24T15:56:19.879Z,12.03
2023-02-24T15:58:47.656Z,13.00
2023-02-24T16:01:15.295Z,12.43
2023-02-24T16:03:43.145Z,12.47
2023-02-24T16:06:16.737Z,12.37
2023-02-24T16:08:44.782Z,12.90
2023-02-24T16:11:13.330Z,12.07
2023-02-24T16:13:42.102Z,13.80
2023-02-24T16:16:12.810Z,11.97
2023-02-24T16:18:40.600Z,12.93
2023-02-24T16:21:08.183Z,13.40
2023-02-24T16:23:35.798Z,12.63
2023-02-24T16:26:03.388Z,13.03
2023-02-24T16:28:31.734Z,12.30
2023-02-24T16:30:59.563Z,14.67
2023-02-24T16:33:27.473Z,13.00
2023-02-24T16:35:55.155Z,12.20
2023-02-24T16:38:24.013Z,13.43
2023-02-24T16:40:51.577Z,12.43
2023-02-24T16:43:19.114Z,11.67
2023-02-24T16:45:46.687Z,10.37
2023-02-24T16:48:20.825Z,10.13
2023-02-24T16:50:48.476Z,8.53
2023-02-24T16:53:20.161Z,7.57
2023-02-24T16:55:48.002Z,6.03
2023-02-24T16:58:16.537Z,7.23
2023-02-24T17:00:45.114Z,7.27
2023-02-24T17:03:20.933Z,6.10
2023-02-24T17:05:48.817Z,6.27
2023-02-24T17:08:16.810Z,6.03
2023-02-24T17:10:45.082Z,5.20
2023-02-24T17:13:16.645Z,5.43
2023-02-24T17:15:44.238Z,5.83
2023-02-24T17:18:11.805Z,4.80
2023-02-24T17:20:40.390Z,4.50
2023-02-24T17:23:07.870Z,4.30
2023-02-24T17:25:35.544Z,5.80
2023-02-24T17:28:05.414Z,4.43
2023-02-24T17:30:35.385Z,3.87
2023-02-24T17:33:04.377Z,4.33
2023-02-24T17:35:31.929Z,4.77
2023-02-24T17:37:59.428Z,4.87
2023-02-24T17:40:27.065Z,4.10
2023-02-24T17:42:54.551Z,4.43
2023-02-24T17:45:22.102Z,4.67
2023-02-24T17:47:49.644Z,3.83
2023-02-24T17:50:17.630Z,4.57
2023-02-24T17:52:45.289Z,4.73
2023-02-24T17:55:12.846Z,4.00
2023-02-24T17:57:40.425Z,4.40
2023-02-24T18:00:10.570Z,4.57
2023-02-24T18:02:38.273Z,4.63
2023-02-24T18:05:06.060Z,4.40
2023-02-24T18:07:33.629Z,4.20
2023-02-24T18:10:01.152Z,3.40
2023-02-24T18:12:29.013Z,4.13
2023-02-24T18:15:07.689Z,3.67
2023-02-24T18:17:35.953Z,4.33
2023-02-24T18:20:03.887Z,3.27
2023-02-24T18:22:31.417Z,1.70
2023-02-24T18:24:58.902Z,1.87
2023-02-24T18:27:26.469Z,2.00
2023-02-24T18:29:54.406Z,2.20
2023-02-24T18:32:22.249Z,1.60
2023-02-24T18:34:50.035Z,1.10
2023-02-24T18:37:17.656Z,1.50
2023-02-24T18:39:45.233Z,1.30
2023-02-24T18:42:12.909Z,1.67
2023-02-24T18:44:40.431Z,1.43
2023-02-24T18:47:08.017Z,1.13
2023-02-24T18:49:36.037Z,1.60
2023-02-24T18:52:03.694Z,1.60
2023-02-24T18:54:31.333Z,1.77
2023-02-24T18:56:58.915Z,2.17
2023-02-24T18:59:26.479Z,2.90
2023-02-24T19:01:54.256Z,2.50
2023-02-24T19:04:21.836Z,2.80
2023-02-24T19:06:49.466Z,2.83
2023-02-24T19:09:17.372Z,2.90
2023-02-24T19:11:44.988Z,3.23
2023-02-24T19:14:12.536Z,3.23
2023-02-24T19:16:40.731Z,2.77
2023-02-24T19:19:08.348Z,2.77
2023-02-24T19:21:35.898Z,3.00
2023-02-24T19:24:04.208Z,2.90
2023-02-24T19:26:31.783Z,2.47
2023-02-24T19:28:59.442Z,3.77
2023-02-24T19:31:28.727Z,2.60
2023-02-24T19:33:57.757Z,2.80
2023-02-24T19:36:25.568Z,2.87
2023-02-24T19:38:53.406Z,3.47
2023-02-24T19:41:21.085Z,2.63
2023-02-24T19:43:48.633Z,2.23
2023-02-24T19:46:16.768Z,3.47
2023-02-24T19:48:44.485Z,2.00
2023-02-24T19:51:14.120Z,3.53
2023-02-24T19:53:41.971Z,3.00
2023-02-24T19:56:09.860Z,2.27
2023-02-24T19:58:37.457Z,2.33
2023-02-24T20:01:09.251Z,2.67
2023-02-24T20:03:37.607Z,2.20
2023-02-24T20:06:05.445Z,2.77
2023-02-24T20:08:35.209Z,3.20
2023-02-24T20:11:04.002Z,1.77
2023-02-24T20:13:32.128Z,2.03
2023-02-24T20:16:07.003Z,2.67
2023-02-24T20:18:34.722Z,3.00
2023-02-24T20:21:02.562Z,2.83
2023-02-24T20:23:30.146Z,2.30
2023-02-24T20:25:57.648Z,3.27
2023-02-24T20:28:25.477Z,2.93
2023-02-24T20:30:53.544Z,2.50
2023-02-24T20:33:21.206Z,2.93
2023-02-24T20:35:48.781Z,3.00
2023-02-24T20:38:16.375Z,2.47
2023-02-24T20:40:43.938Z,3.03
2023-02-24T20:43:11.532Z,2.90
2023-02-24T20:45:39.341Z,3.50
2023-02-24T20:48:07.052Z,3.33
2023-02-24T20:50:34.631Z,2.53
2023-02-24T20:53:02.287Z,2.80
2023-02-24T20:55:29.890Z,3.40
2023-02-24T20:57:57.448Z,3.70
2023-02-24T21:00:25.052Z,3.20
2023-02-24T21:02:52.785Z,2.43
2023-02-24T21:05:21.484Z,3.23
2023-02-24T21:07:49.858Z,3.67
2023-02-24T21:10:18.249Z,2.83
2023-02-24T21:12:46.439Z,3.40
2023-02-24T21:15:14.018Z,3.03
2023-02-24T21:17:41.679Z,3.27
2023-02-24T21:20:09.574Z,3.50
2023-02-24T21:22:38.706Z,3.27
2023-02-24T21:25:06.892Z,2.90
2023-02-24T21:27:34.650Z,3.60
2023-02-24T21:30:02.201Z,4.10
2023-02-24T21:32:29.876Z,3.40
2023-02-24T21:34:57.464Z,3.63
2023-02-24T21:37:25.076Z,3.60
2023-02-24T21:39:52.564Z,3.37
2023-02-24T21:42:20.153Z,3.97
2023-02-24T21:44:47.632Z,2.87
2023-02-24T21:47:15.296Z,3.67
2023-02-24T21:49:42.844Z,3.37
2023-02-24T21:52:10.419Z,4.00
2023-02-24T21:54:38.078Z,3.33
2023-02-24T21:57:05.641Z,3.80
2023-02-24T21:59:33.188Z,3.93
2023-02-24T22:02:00.946Z,3.43
2023-02-24T22:04:28.586Z,3.40
2023-02-24T22:06:56.152Z,3.47
2023-02-24T22:09:23.718Z,3.70
2023-02-24T22:11:51.320Z,3.33
2023-02-24T22:14:18.955Z,3.60
2023-02-24T22:16:46.529Z,3.70
2023-02-24T22:19:14.384Z,3.83
2023-02-24T22:21:42.298Z,4.43
2023-02-24T22:24:12.308Z,3.70
2023-02-24T22:26:40.281Z,4.80
2023-02-24T22:29:07.932Z,3.77
2023-02-24T22:31:36.389Z,3.80
2023-02-24T22:34:04.394Z,3.87
2023-02-24T22:36:35.644Z,3.50
2023-02-24T22:39:04.091Z,3.87
2023-02-24T22:41:33.138Z,3.93
2023-02-24T22:44:01.428Z,3.60
2023-02-24T22:46:30.752Z,3.80
2023-02-24T22:48:58.913Z,3.97
2023-02-24T22:51:27.278Z,4.00
2023-02-24T22:53:55.080Z,4.27
2023-02-24T22:56:24.613Z,3.87
2023-02-24T22:58:52.399Z,4.83
2023-02-24T23:01:21.160Z,4.60
2023-02-24T23:03:49.242Z,4.13
2023-02-24T23:06:18.356Z,4.63
2023-02-24T23:08:46.902Z,3.40
2023-02-24T23:11:16.249Z,4.23
2023-02-24T23:13:44.141Z,3.30
2023-02-24T23:16:12.836Z,3.47
2023-02-24T23:18:40.639Z,4.30
2023-02-24T23:21:10.395Z,4.50
2023-02-24T23:23:38.459Z,3.70
2023-02-24T23:26:06.183Z,5.13
2023-02-24T23:28:34.184Z,4.33
2023-02-24T23:31:01.787Z,4.20
2023-02-24T23:33:29.455Z,2.90
2023-02-24T23:35:57.020Z,4.33
2023-02-24T23:38:24.818Z,4.33
2023-02-24T23:40:52.355Z,4.70
2023-02-24T23:43:19.934Z,4.60
2023-02-24T23:45:47.553Z,3.50
2023-02-24T23:48:15.191Z,4.10
2023-02-24T23:50:43.508Z,3.80
2023-02-24T23:53:11.126Z,3.73
2023-02-24T23:55:41.612Z,3.90
2023-02-24T23:58:09.291Z,3.50
